sensor_id;sensor_type;location;lat;lon;timestamp;P1;durP1;ratioP1;P2;durP2;ratioP2
63316;SDS011;49822;41.468;13.560;2022-09-09T00:01:25;10.35;;;5.55;;
63316;SDS011;49822;41.468;13.560;2022-09-09T00:04:05;14.23;;;5.93;;
63316;SDS011;49822;41.468;13.560;2022-09-09T00:07:00;13.88;;;6.35;;
63316;SDS011;49822;41.468;13.560;2022-09-09T00:09:39;14.77;;;5.95;;
63316;SDS011;49822;41.468;13.560;2022-09-09T00:15:02;13.05;;;6.30;;
63316;SDS011;49822;41.468;13.560;2022-09-09T00:17:43;16.25;;;6.28;;
63316;SDS011;49822;41.468;13.560;2022-09-09T00:20:24;18.38;;;6.68;;
63316;SDS011;49822;41.468;13.560;2022-09-09T00:22:59;18.15;;;6.82;;
63316;SDS011;49822;41.468;13.560;2022-09-09T00:25:34;19.10;;;6.43;;
63316;SDS011;49822;41.468;13.560;2022-09-09T00:28:22;14.07;;;6.78;;
63316;SDS011;49822;41.468;13.560;2022-09-09T00:30:52;14.48;;;6.25;;
63316;SDS011;49822;41.468;13.560;2022-09-09T00:33:22;14.02;;;5.93;;
63316;SDS011;49822;41.468;13.560;2022-09-09T00:35:52;13.90;;;5.90;;
63316;SDS011;49822;41.468;13.560;2022-09-09T00:43:33;12.20;;;5.57;;
63316;SDS011;49822;41.468;13.560;2022-09-09T00:51:48;18.95;;;6.13;;
63316;SDS011;49822;41.468;13.560;2022-09-09T00:59:48;12.13;;;5.07;;
63316;SDS011;49822;41.468;13.560;2022-09-09T01:02:31;18.67;;;7.00;;
63316;SDS011;49822;41.468;13.560;2022-09-09T01:05:08;18.70;;;7.50;;
63316;SDS011;49822;41.468;13.560;2022-09-09T01:07:50;17.70;;;7.28;;
63316;SDS011;49822;41.468;13.560;2022-09-09T01:13:17;14.40;;;7.07;;
63316;SDS011;49822;41.468;13.560;2022-09-09T01:16:08;21.08;;;6.45;;
63316;SDS011;49822;41.468;13.560;2022-09-09T01:18:40;17.98;;;6.75;;
63316;SDS011;49822;41.468;13.560;2022-09-09T01:27:06;15.15;;;7.53;;
63316;SDS011;49822;41.468;13.560;2022-09-09T01:29:36;14.20;;;5.65;;
63316;SDS011;49822;41.468;13.560;2022-09-09T01:35:11;16.50;;;6.78;;
63316;SDS011;49822;41.468;13.560;2022-09-09T01:38:00;12.07;;;6.45;;
63316;SDS011;49822;41.468;13.560;2022-09-09T01:40:28;16.48;;;6.97;;
63316;SDS011;49822;41.468;13.560;2022-09-09T01:42:56;13.23;;;7.05;;
63316;SDS011;49822;41.468;13.560;2022-09-09T01:45:24;13.10;;;5.90;;
63316;SDS011;49822;41.468;13.560;2022-09-09T01:47:53;11.20;;;5.83;;
63316;SDS011;49822;41.468;13.560;2022-09-09T01:50:46;18.73;;;6.60;;
63316;SDS011;49822;41.468;13.560;2022-09-09T01:53:15;20.17;;;8.18;;
63316;SDS011;49822;41.468;13.560;2022-09-09T01:55:49;15.10;;;7.72;;
63316;SDS011;49822;41.468;13.560;2022-09-09T01:58:47;20.63;;;6.80;;
63316;SDS011;49822;41.468;13.560;2022-09-09T02:09:43;18.15;;;6.15;;
63316;SDS011;49822;41.468;13.560;2022-09-09T02:12:14;14.88;;;5.53;;
63316;SDS011;49822;41.468;13.560;2022-09-09T02:14:54;14.05;;;6.03;;
63316;SDS011;49822;41.468;13.560;2022-09-09T02:17:26;14.88;;;6.20;;
63316;SDS011;49822;41.468;13.560;2022-09-09T02:20:08;16.27;;;6.97;;
63316;SDS011;49822;41.468;13.560;2022-09-09T02:22:49;17.25;;;7.32;;
63316;SDS011;49822;41.468;13.560;2022-09-09T02:27:49;24.88;;;7.88;;
63316;SDS011;49822;41.468;13.560;2022-09-09T02:30:22;20.17;;;7.47;;
63316;SDS011;49822;41.468;13.560;2022-09-09T02:32:56;20.17;;;7.90;;
63316;SDS011;49822;41.468;13.560;2022-09-09T02:35:40;13.45;;;6.85;;
63316;SDS011;49822;41.468;13.560;2022-09-09T02:38:13;29.63;;;6.95;;
63316;SDS011;49822;41.468;13.560;2022-09-09T02:40:54;17.75;;;7.22;;
63316;SDS011;49822;41.468;13.560;2022-09-09T02:43:22;17.88;;;7.63;;
63316;SDS011;49822;41.468;13.560;2022-09-09T02:46:00;17.27;;;7.43;;
63316;SDS011;49822;41.468;13.560;2022-09-09T02:49:09;16.23;;;7.10;;
63316;SDS011;49822;41.468;13.560;2022-09-09T02:54:29;18.70;;;7.03;;
63316;SDS011;49822;41.468;13.560;2022-09-09T02:59:53;18.52;;;7.07;;
63316;SDS011;49822;41.468;13.560;2022-09-09T03:02:29;19.70;;;7.43;;
63316;SDS011;49822;41.468;13.560;2022-09-09T03:05:02;19.40;;;7.70;;
63316;SDS011;49822;41.468;13.560;2022-09-09T03:07:30;23.98;;;7.65;;
63316;SDS011;49822;41.468;13.560;2022-09-09T03:09:57;15.77;;;6.88;;
63316;SDS011;49822;41.468;13.560;2022-09-09T03:12:26;16.50;;;6.55;;
63316;SDS011;49822;41.468;13.560;2022-09-09T03:14:54;17.00;;;7.10;;
63316;SDS011;49822;41.468;13.560;2022-09-09T03:17:23;21.65;;;6.85;;
63316;SDS011;49822;41.468;13.560;2022-09-09T03:19:53;19.88;;;6.80;;
63316;SDS011;49822;41.468;13.560;2022-09-09T03:22:22;20.63;;;7.57;;
63316;SDS011;49822;41.468;13.560;2022-09-09T03:24:49;31.27;;;7.65;;
63316;SDS011;49822;41.468;13.560;2022-09-09T03:27:18;26.85;;;7.25;;
63316;SDS011;49822;41.468;13.560;2022-09-09T03:29:46;30.58;;;7.65;;
63316;SDS011;49822;41.468;13.560;2022-09-09T03:32:22;26.20;;;7.80;;
63316;SDS011;49822;41.468;13.560;2022-09-09T03:34:49;33.15;;;8.95;;
63316;SDS011;49822;41.468;13.560;2022-09-09T03:37:18;19.63;;;8.00;;
63316;SDS011;49822;41.468;13.560;2022-09-09T03:42:17;21.23;;;6.80;;
63316;SDS011;49822;41.468;13.560;2022-09-09T03:44:51;21.38;;;7.22;;
63316;SDS011;49822;41.468;13.560;2022-09-09T03:47:22;16.02;;;6.75;;
63316;SDS011;49822;41.468;13.560;2022-09-09T03:49:54;14.73;;;6.40;;
63316;SDS011;49822;41.468;13.560;2022-09-09T03:52:22;20.33;;;6.97;;
63316;SDS011;49822;41.468;13.560;2022-09-09T03:54:53;25.77;;;8.82;;
63316;SDS011;49822;41.468;13.560;2022-09-09T03:57:21;16.33;;;6.00;;
63316;SDS011;49822;41.468;13.560;2022-09-09T03:59:49;12.13;;;5.35;;
63316;SDS011;49822;41.468;13.560;2022-09-09T04:02:17;16.48;;;5.85;;
63316;SDS011;49822;41.468;13.560;2022-09-09T04:04:45;13.02;;;5.40;;
63316;SDS011;49822;41.468;13.560;2022-09-09T04:07:13;15.20;;;6.00;;
63316;SDS011;49822;41.468;13.560;2022-09-09T04:09:42;11.52;;;4.63;;
63316;SDS011;49822;41.468;13.560;2022-09-09T04:12:09;13.55;;;5.30;;
63316;SDS011;49822;41.468;13.560;2022-09-09T04:14:44;10.85;;;4.78;;
63316;SDS011;49822;41.468;13.560;2022-09-09T04:20:01;18.67;;;7.20;;
63316;SDS011;49822;41.468;13.560;2022-09-09T04:22:34;20.35;;;5.40;;
63316;SDS011;49822;41.468;13.560;2022-09-09T04:25:07;22.40;;;4.68;;
63316;SDS011;49822;41.468;13.560;2022-09-09T04:27:35;15.35;;;3.47;;
63316;SDS011;49822;41.468;13.560;2022-09-09T04:30:03;7.78;;;3.38;;
63316;SDS011;49822;41.468;13.560;2022-09-09T04:32:35;6.00;;;3.25;;
63316;SDS011;49822;41.468;13.560;2022-09-09T04:35:04;8.32;;;3.10;;
63316;SDS011;49822;41.468;13.560;2022-09-09T04:37:34;8.35;;;3.13;;
63316;SDS011;49822;41.468;13.560;2022-09-09T04:40:02;9.50;;;4.32;;
63316;SDS011;49822;41.468;13.560;2022-09-09T04:42:36;9.10;;;3.20;;
63316;SDS011;49822;41.468;13.560;2022-09-09T04:45:04;5.90;;;2.58;;
63316;SDS011;49822;41.468;13.560;2022-09-09T04:47:33;6.90;;;2.50;;
63316;SDS011;49822;41.468;13.560;2022-09-09T04:50:03;6.03;;;2.47;;
63316;SDS011;49822;41.468;13.560;2022-09-09T04:52:33;4.03;;;2.30;;
63316;SDS011;49822;41.468;13.560;2022-09-09T04:55:02;4.68;;;2.20;;
63316;SDS011;49822;41.468;13.560;2022-09-09T04:57:31;3.92;;;2.03;;
63316;SDS011;49822;41.468;13.560;2022-09-09T04:59:59;5.60;;;2.35;;
63316;SDS011;49822;41.468;13.560;2022-09-09T05:02:32;7.85;;;2.55;;
63316;SDS011;49822;41.468;13.560;2022-09-09T05:05:00;7.78;;;2.40;;
63316;SDS011;49822;41.468;13.560;2022-09-09T05:07:28;11.30;;;2.70;;
63316;SDS011;49822;41.468;13.560;2022-09-09T05:09:57;9.00;;;2.30;;
63316;SDS011;49822;41.468;13.560;2022-09-09T05:12:25;3.58;;;2.15;;
63316;SDS011;49822;41.468;13.560;2022-09-09T05:14:55;7.00;;;2.50;;
63316;SDS011;49822;41.468;13.560;2022-09-09T05:17:24;9.27;;;2.45;;
63316;SDS011;49822;41.468;13.560;2022-09-09T05:19:52;9.23;;;3.55;;
63316;SDS011;49822;41.468;13.560;2022-09-09T05:22:20;9.55;;;4.80;;
63316;SDS011;49822;41.468;13.560;2022-09-09T05:24:49;7.65;;;4.22;;
63316;SDS011;49822;41.468;13.560;2022-09-09T05:27:18;8.68;;;2.95;;
63316;SDS011;49822;41.468;13.560;2022-09-09T05:29:47;5.78;;;2.50;;
63316;SDS011;49822;41.468;13.560;2022-09-09T05:32:15;6.18;;;2.22;;
63316;SDS011;49822;41.468;13.560;2022-09-09T05:34:46;5.82;;;3.05;;
63316;SDS011;49822;41.468;13.560;2022-09-09T05:37:15;7.13;;;2.80;;
63316;SDS011;49822;41.468;13.560;2022-09-09T05:39:43;6.53;;;3.28;;
63316;SDS011;49822;41.468;13.560;2022-09-09T05:42:11;6.28;;;3.17;;
63316;SDS011;49822;41.468;13.560;2022-09-09T05:44:38;6.57;;;2.08;;
63316;SDS011;49822;41.468;13.560;2022-09-09T05:47:06;7.97;;;2.05;;
63316;SDS011;49822;41.468;13.560;2022-09-09T05:49:34;5.43;;;2.17;;
63316;SDS011;49822;41.468;13.560;2022-09-09T05:52:02;2.97;;;1.88;;
63316;SDS011;49822;41.468;13.560;2022-09-09T05:54:30;7.50;;;2.40;;
63316;SDS011;49822;41.468;13.560;2022-09-09T05:56:59;5.53;;;2.28;;
63316;SDS011;49822;41.468;13.560;2022-09-09T05:59:28;11.68;;;2.70;;
63316;SDS011;49822;41.468;13.560;2022-09-09T06:01:56;8.25;;;2.58;;
63316;SDS011;49822;41.468;13.560;2022-09-09T06:04:34;7.47;;;2.28;;
63316;SDS011;49822;41.468;13.560;2022-09-09T06:07:02;9.25;;;2.50;;
63316;SDS011;49822;41.468;13.560;2022-09-09T06:09:30;4.93;;;1.90;;
63316;SDS011;49822;41.468;13.560;2022-09-09T06:11:58;8.02;;;3.15;;
63316;SDS011;49822;41.468;13.560;2022-09-09T06:14:26;7.10;;;2.75;;
63316;SDS011;49822;41.468;13.560;2022-09-09T06:16:56;5.43;;;2.30;;
63316;SDS011;49822;41.468;13.560;2022-09-09T06:19:28;8.05;;;2.20;;
63316;SDS011;49822;41.468;13.560;2022-09-09T06:21:57;3.90;;;2.05;;
63316;SDS011;49822;41.468;13.560;2022-09-09T06:24:27;5.15;;;2.22;;
63316;SDS011;49822;41.468;13.560;2022-09-09T06:26:58;4.78;;;2.08;;
63316;SDS011;49822;41.468;13.560;2022-09-09T06:29:29;3.35;;;1.95;;
63316;SDS011;49822;41.468;13.560;2022-09-09T06:31:56;7.65;;;2.15;;
63316;SDS011;49822;41.468;13.560;2022-09-09T06:34:26;8.13;;;2.92;;
63316;SDS011;49822;41.468;13.560;2022-09-09T06:36:55;4.07;;;2.55;;
63316;SDS011;49822;41.468;13.560;2022-09-09T06:39:27;3.72;;;2.20;;
63316;SDS011;49822;41.468;13.560;2022-09-09T06:41:55;4.00;;;2.47;;
63316;SDS011;49822;41.468;13.560;2022-09-09T06:44:42;4.93;;;2.03;;
63316;SDS011;49822;41.468;13.560;2022-09-09T06:47:16;5.10;;;2.22;;
63316;SDS011;49822;41.468;13.560;2022-09-09T06:49:43;5.28;;;2.35;;
63316;SDS011;49822;41.468;13.560;2022-09-09T06:52:15;6.85;;;2.50;;
63316;SDS011;49822;41.468;13.560;2022-09-09T06:54:46;5.80;;;2.72;;
63316;SDS011;49822;41.468;13.560;2022-09-09T06:57:15;7.22;;;2.85;;
63316;SDS011;49822;41.468;13.560;2022-09-09T07:00:06;8.27;;;2.65;;
63316;SDS011;49822;41.468;13.560;2022-09-09T07:02:39;9.07;;;3.70;;
63316;SDS011;49822;41.468;13.560;2022-09-09T07:05:08;7.55;;;2.50;;
63316;SDS011;49822;41.468;13.560;2022-09-09T07:07:37;4.13;;;2.30;;
63316;SDS011;49822;41.468;13.560;2022-09-09T07:10:06;5.97;;;2.55;;
63316;SDS011;49822;41.468;13.560;2022-09-09T07:12:36;7.85;;;3.10;;
63316;SDS011;49822;41.468;13.560;2022-09-09T07:15:08;6.30;;;2.50;;
63316;SDS011;49822;41.468;13.560;2022-09-09T07:17:40;17.40;;;3.15;;
63316;SDS011;49822;41.468;13.560;2022-09-09T07:20:07;8.48;;;2.42;;
63316;SDS011;49822;41.468;13.560;2022-09-09T07:22:35;7.80;;;2.95;;
63316;SDS011;49822;41.468;13.560;2022-09-09T07:25:03;7.53;;;2.72;;
63316;SDS011;49822;41.468;13.560;2022-09-09T07:27:35;5.40;;;2.78;;
63316;SDS011;49822;41.468;13.560;2022-09-09T07:30:03;5.13;;;2.53;;
63316;SDS011;49822;41.468;13.560;2022-09-09T07:32:34;7.80;;;2.67;;
63316;SDS011;49822;41.468;13.560;2022-09-09T07:35:01;5.35;;;2.60;;
63316;SDS011;49822;41.468;13.560;2022-09-09T07:37:30;8.25;;;2.22;;
63316;SDS011;49822;41.468;13.560;2022-09-09T07:39:58;8.50;;;2.40;;
63316;SDS011;49822;41.468;13.560;2022-09-09T07:42:25;5.30;;;2.33;;
63316;SDS011;49822;41.468;13.560;2022-09-09T07:44:53;4.13;;;2.30;;
63316;SDS011;49822;41.468;13.560;2022-09-09T07:47:22;6.75;;;2.20;;
63316;SDS011;49822;41.468;13.560;2022-09-09T07:49:51;5.68;;;2.65;;
63316;SDS011;49822;41.468;13.560;2022-09-09T07:52:26;6.10;;;2.38;;
63316;SDS011;49822;41.468;13.560;2022-09-09T07:54:58;6.45;;;2.50;;
63316;SDS011;49822;41.468;13.560;2022-09-09T07:57:28;5.82;;;2.63;;
63316;SDS011;49822;41.468;13.560;2022-09-09T07:59:57;4.88;;;2.38;;
63316;SDS011;49822;41.468;13.560;2022-09-09T08:02:24;8.45;;;2.70;;
63316;SDS011;49822;41.468;13.560;2022-09-09T08:04:55;6.63;;;3.45;;
63316;SDS011;49822;41.468;13.560;2022-09-09T08:07:23;5.07;;;2.70;;
63316;SDS011;49822;41.468;13.560;2022-09-09T08:09:54;5.35;;;2.42;;
63316;SDS011;49822;41.468;13.560;2022-09-09T08:12:27;4.97;;;2.35;;
63316;SDS011;49822;41.468;13.560;2022-09-09T08:14:55;7.38;;;2.95;;
63316;SDS011;49822;41.468;13.560;2022-09-09T08:17:26;6.35;;;2.47;;
63316;SDS011;49822;41.468;13.560;2022-09-09T08:19:55;6.05;;;2.35;;
63316;SDS011;49822;41.468;13.560;2022-09-09T08:24:54;6.18;;;2.45;;
63316;SDS011;49822;41.468;13.560;2022-09-09T08:27:22;11.23;;;2.67;;
63316;SDS011;49822;41.468;13.560;2022-09-09T08:29:51;4.78;;;2.35;;
63316;SDS011;49822;41.468;13.560;2022-09-09T08:32:20;4.30;;;2.33;;
63316;SDS011;49822;41.468;13.560;2022-09-09T08:34:48;6.03;;;2.70;;
63316;SDS011;49822;41.468;13.560;2022-09-09T08:37:22;6.30;;;2.50;;
63316;SDS011;49822;41.468;13.560;2022-09-09T08:39:50;7.38;;;2.40;;
63316;SDS011;49822;41.468;13.560;2022-09-09T08:55:50;7.78;;;2.35;;
63316;SDS011;49822;41.468;13.560;2022-09-09T08:58:30;11.00;;;2.83;;
63316;SDS011;49822;41.468;13.560;2022-09-09T09:11:43;6.10;;;2.42;;
63316;SDS011;49822;41.468;13.560;2022-09-09T09:14:22;10.18;;;2.72;;
63316;SDS011;49822;41.468;13.560;2022-09-09T09:19:31;7.32;;;2.10;;
63316;SDS011;49822;41.468;13.560;2022-09-09T09:22:20;3.85;;;2.00;;
63316;SDS011;49822;41.468;13.560;2022-09-09T09:27:34;6.30;;;2.05;;
63316;SDS011;49822;41.468;13.560;2022-09-09T09:30:25;6.20;;;2.10;;
63316;SDS011;49822;41.468;13.560;2022-09-09T09:36:00;3.83;;;2.28;;
63316;SDS011;49822;41.468;13.560;2022-09-09T09:38:29;8.45;;;2.65;;
63316;SDS011;49822;41.468;13.560;2022-09-09T09:41:17;6.80;;;2.50;;
63316;SDS011;49822;41.468;13.560;2022-09-09T09:47:08;11.90;;;3.05;;
63316;SDS011;49822;41.468;13.560;2022-09-09T09:50:00;6.03;;;2.88;;
63316;SDS011;49822;41.468;13.560;2022-09-09T09:52:36;10.23;;;3.38;;
63316;SDS011;49822;41.468;13.560;2022-09-09T09:55:11;7.35;;;2.88;;
63316;SDS011;49822;41.468;13.560;2022-09-09T09:57:44;15.30;;;3.40;;
63316;SDS011;49822;41.468;13.560;2022-09-09T10:00:21;10.55;;;3.05;;
63316;SDS011;49822;41.468;13.560;2022-09-09T10:03:02;12.60;;;3.78;;
63316;SDS011;49822;41.468;13.560;2022-09-09T10:05:49;9.10;;;3.47;;
63316;SDS011;49822;41.468;13.560;2022-09-09T10:08:18;11.27;;;3.47;;
63316;SDS011;49822;41.468;13.560;2022-09-09T10:10:50;11.00;;;3.72;;
63316;SDS011;49822;41.468;13.560;2022-09-09T10:13:45;8.20;;;2.85;;
63316;SDS011;49822;41.468;13.560;2022-09-09T10:21:59;14.50;;;3.10;;
63316;SDS011;49822;41.468;13.560;2022-09-09T10:25:09;7.80;;;3.30;;
63316;SDS011;49822;41.468;13.560;2022-09-09T10:28:06;8.45;;;3.75;;
63316;SDS011;49822;41.468;13.560;2022-09-09T10:33:18;10.18;;;2.75;;
63316;SDS011;49822;41.468;13.560;2022-09-09T10:38:52;9.95;;;3.15;;
63316;SDS011;49822;41.468;13.560;2022-09-09T10:53:25;11.02;;;3.28;;
63316;SDS011;49822;41.468;13.560;2022-09-09T10:56:16;9.60;;;3.47;;
63316;SDS011;49822;41.468;13.560;2022-09-09T10:58:49;8.98;;;3.92;;
63316;SDS011;49822;41.468;13.560;2022-09-09T11:01:31;9.93;;;2.80;;
63316;SDS011;49822;41.468;13.560;2022-09-09T11:04:17;9.82;;;3.55;;
63316;SDS011;49822;41.468;13.560;2022-09-09T11:06:54;10.40;;;3.45;;
63316;SDS011;49822;41.468;13.560;2022-09-09T11:09:26;11.63;;;3.72;;
63316;SDS011;49822;41.468;13.560;2022-09-09T11:11:58;9.68;;;4.25;;
63316;SDS011;49822;41.468;13.560;2022-09-09T11:14:43;10.00;;;4.13;;
63316;SDS011;49822;41.468;13.560;2022-09-09T11:17:15;7.53;;;3.08;;
63316;SDS011;49822;41.468;13.560;2022-09-09T11:19:48;9.70;;;3.80;;
63316;SDS011;49822;41.468;13.560;2022-09-09T11:25:18;11.25;;;3.80;;
63316;SDS011;49822;41.468;13.560;2022-09-09T11:28:25;11.40;;;3.72;;
63316;SDS011;49822;41.468;13.560;2022-09-09T11:31:21;14.00;;;3.72;;
63316;SDS011;49822;41.468;13.560;2022-09-09T11:42:07;17.27;;;4.28;;
63316;SDS011;49822;41.468;13.560;2022-09-09T11:44:45;12.05;;;3.50;;
63316;SDS011;49822;41.468;13.560;2022-09-09T11:47:31;13.63;;;3.70;;
63316;SDS011;49822;41.468;13.560;2022-09-09T11:50:09;11.07;;;2.90;;
63316;SDS011;49822;41.468;13.560;2022-09-09T11:52:43;22.83;;;3.42;;
63316;SDS011;49822;41.468;13.560;2022-09-09T12:00:40;12.18;;;3.13;;
63316;SDS011;49822;41.468;13.560;2022-09-09T12:06:19;16.90;;;3.60;;
63316;SDS011;49822;41.468;13.560;2022-09-09T12:09:15;11.80;;;2.90;;
63316;SDS011;49822;41.468;13.560;2022-09-09T12:14:56;11.13;;;3.53;;
63316;SDS011;49822;41.468;13.560;2022-09-09T12:17:30;15.48;;;3.55;;
63316;SDS011;49822;41.468;13.560;2022-09-09T12:20:14;18.85;;;3.42;;
63316;SDS011;49822;41.468;13.560;2022-09-09T12:28:45;14.55;;;3.38;;
63316;SDS011;49822;41.468;13.560;2022-09-09T12:34:13;8.77;;;2.60;;
63316;SDS011;49822;41.468;13.560;2022-09-09T12:36:42;16.80;;;3.08;;
63316;SDS011;49822;41.468;13.560;2022-09-09T12:39:27;17.38;;;3.58;;
63316;SDS011;49822;41.468;13.560;2022-09-09T12:42:00;9.88;;;2.97;;
63316;SDS011;49822;41.468;13.560;2022-09-09T12:44:27;9.77;;;2.85;;
63316;SDS011;49822;41.468;13.560;2022-09-09T12:46:58;21.60;;;4.05;;
63316;SDS011;49822;41.468;13.560;2022-09-09T12:49:29;17.35;;;3.45;;
63316;SDS011;49822;41.468;13.560;2022-09-09T12:52:26;21.08;;;3.47;;
63316;SDS011;49822;41.468;13.560;2022-09-09T12:55:00;15.05;;;3.88;;
63316;SDS011;49822;41.468;13.560;2022-09-09T12:57:36;13.15;;;3.30;;
63316;SDS011;49822;41.468;13.560;2022-09-09T13:00:18;18.42;;;4.22;;
63316;SDS011;49822;41.468;13.560;2022-09-09T13:02:54;13.13;;;3.20;;
63316;SDS011;49822;41.468;13.560;2022-09-09T13:05:24;15.95;;;2.88;;
63316;SDS011;49822;41.468;13.560;2022-09-09T13:08:05;16.05;;;3.58;;
63316;SDS011;49822;41.468;13.560;2022-09-09T13:10:40;15.75;;;3.28;;
63316;SDS011;49822;41.468;13.560;2022-09-09T13:13:31;17.80;;;3.40;;
63316;SDS011;49822;41.468;13.560;2022-09-09T13:16:04;15.18;;;3.60;;
63316;SDS011;49822;41.468;13.560;2022-09-09T13:18:35;17.27;;;3.72;;
63316;SDS011;49822;41.468;13.560;2022-09-09T13:21:06;15.65;;;2.60;;
63316;SDS011;49822;41.468;13.560;2022-09-09T13:23:34;13.38;;;2.78;;
63316;SDS011;49822;41.468;13.560;2022-09-09T13:26:19;15.18;;;3.03;;
63316;SDS011;49822;41.468;13.560;2022-09-09T13:28:50;13.45;;;3.33;;
63316;SDS011;49822;41.468;13.560;2022-09-09T13:33:50;13.65;;;3.00;;
63316;SDS011;49822;41.468;13.560;2022-09-09T13:38:55;16.25;;;3.92;;
63316;SDS011;49822;41.468;13.560;2022-09-09T13:41:29;23.05;;;3.65;;
63316;SDS011;49822;41.468;13.560;2022-09-09T13:44:02;10.48;;;2.60;;
63316;SDS011;49822;41.468;13.560;2022-09-09T13:46:36;18.63;;;3.55;;
63316;SDS011;49822;41.468;13.560;2022-09-09T13:51:38;14.60;;;3.17;;
63316;SDS011;49822;41.468;13.560;2022-09-09T13:54:14;20.38;;;3.83;;
63316;SDS011;49822;41.468;13.560;2022-09-09T13:56:43;20.85;;;3.72;;
63316;SDS011;49822;41.468;13.560;2022-09-09T13:59:17;22.33;;;3.50;;
63316;SDS011;49822;41.468;13.560;2022-09-09T14:02:08;14.65;;;2.92;;
63316;SDS011;49822;41.468;13.560;2022-09-09T14:04:35;14.50;;;2.70;;
63316;SDS011;49822;41.468;13.560;2022-09-09T14:07:02;16.15;;;3.30;;
63316;SDS011;49822;41.468;13.560;2022-09-09T14:09:30;20.33;;;3.00;;
63316;SDS011;49822;41.468;13.560;2022-09-09T14:11:57;20.80;;;3.53;;
63316;SDS011;49822;41.468;13.560;2022-09-09T14:14:25;21.25;;;3.28;;
63316;SDS011;49822;41.468;13.560;2022-09-09T14:16:52;16.63;;;2.90;;
63316;SDS011;49822;41.468;13.560;2022-09-09T14:19:20;17.05;;;3.13;;
63316;SDS011;49822;41.468;13.560;2022-09-09T14:21:59;13.13;;;2.63;;
63316;SDS011;49822;41.468;13.560;2022-09-09T14:24:27;14.95;;;2.83;;
63316;SDS011;49822;41.468;13.560;2022-09-09T14:26:55;13.10;;;3.22;;
63316;SDS011;49822;41.468;13.560;2022-09-09T14:29:22;14.40;;;3.28;;
63316;SDS011;49822;41.468;13.560;2022-09-09T14:31:52;17.45;;;3.05;;
63316;SDS011;49822;41.468;13.560;2022-09-09T14:34:38;11.63;;;2.72;;
63316;SDS011;49822;41.468;13.560;2022-09-09T14:37:05;22.77;;;4.40;;
63316;SDS011;49822;41.468;13.560;2022-09-09T14:39:33;12.88;;;2.40;;
63316;SDS011;49822;41.468;13.560;2022-09-09T14:42:00;11.77;;;2.78;;
63316;SDS011;49822;41.468;13.560;2022-09-09T14:44:29;13.90;;;2.45;;
63316;SDS011;49822;41.468;13.560;2022-09-09T14:46:57;17.90;;;3.15;;
63316;SDS011;49822;41.468;13.560;2022-09-09T14:49:25;16.67;;;3.03;;
63316;SDS011;49822;41.468;13.560;2022-09-09T14:52:11;18.80;;;2.97;;
63316;SDS011;49822;41.468;13.560;2022-09-09T14:54:38;14.57;;;2.80;;
63316;SDS011;49822;41.468;13.560;2022-09-09T14:57:05;13.73;;;3.00;;
63316;SDS011;49822;41.468;13.560;2022-09-09T14:59:33;19.63;;;2.55;;
63316;SDS011;49822;41.468;13.560;2022-09-09T15:02:01;12.07;;;2.25;;
63316;SDS011;49822;41.468;13.560;2022-09-09T15:04:31;11.80;;;3.10;;
63316;SDS011;49822;41.468;13.560;2022-09-09T15:06:58;14.52;;;3.10;;
63316;SDS011;49822;41.468;13.560;2022-09-09T15:09:26;15.05;;;2.55;;
63316;SDS011;49822;41.468;13.560;2022-09-09T15:11:53;11.90;;;2.85;;
63316;SDS011;49822;41.468;13.560;2022-09-09T15:14:21;17.80;;;2.67;;
63316;SDS011;49822;41.468;13.560;2022-09-09T15:16:51;25.23;;;4.03;;
63316;SDS011;49822;41.468;13.560;2022-09-09T15:19:19;17.23;;;3.45;;
63316;SDS011;49822;41.468;13.560;2022-09-09T15:21:46;23.27;;;3.47;;
63316;SDS011;49822;41.468;13.560;2022-09-09T15:24:14;15.10;;;2.80;;
63316;SDS011;49822;41.468;13.560;2022-09-09T15:26:43;17.40;;;2.58;;
63316;SDS011;49822;41.468;13.560;2022-09-09T15:29:11;19.38;;;3.47;;
63316;SDS011;49822;41.468;13.560;2022-09-09T15:31:39;16.77;;;2.70;;
63316;SDS011;49822;41.468;13.560;2022-09-09T15:34:07;23.58;;;3.67;;
63316;SDS011;49822;41.468;13.560;2022-09-09T15:36:38;10.50;;;2.80;;
63316;SDS011;49822;41.468;13.560;2022-09-09T15:39:09;16.90;;;3.88;;
63316;SDS011;49822;41.468;13.560;2022-09-09T15:41:42;14.88;;;3.00;;
63316;SDS011;49822;41.468;13.560;2022-09-09T15:44:11;9.85;;;2.78;;
63316;SDS011;49822;41.468;13.560;2022-09-09T15:46:39;19.48;;;3.88;;
63316;SDS011;49822;41.468;13.560;2022-09-09T15:49:15;23.42;;;4.47;;
63316;SDS011;49822;41.468;13.560;2022-09-09T15:52:02;18.92;;;4.30;;
63316;SDS011;49822;41.468;13.560;2022-09-09T15:54:31;12.82;;;3.78;;
63316;SDS011;49822;41.468;13.560;2022-09-09T15:57:02;16.38;;;3.42;;
63316;SDS011;49822;41.468;13.560;2022-09-09T15:59:31;25.05;;;5.18;;
63316;SDS011;49822;41.468;13.560;2022-09-09T16:02:01;16.75;;;4.80;;
63316;SDS011;49822;41.468;13.560;2022-09-09T16:04:28;18.95;;;4.53;;
63316;SDS011;49822;41.468;13.560;2022-09-09T16:06:57;12.70;;;3.05;;
63316;SDS011;49822;41.468;13.560;2022-09-09T16:09:27;20.33;;;3.95;;
63316;SDS011;49822;41.468;13.560;2022-09-09T16:12:01;14.50;;;3.42;;
63316;SDS011;49822;41.468;13.560;2022-09-09T16:14:34;16.93;;;3.40;;
63316;SDS011;49822;41.468;13.560;2022-09-09T16:17:04;12.02;;;3.13;;
63316;SDS011;49822;41.468;13.560;2022-09-09T16:19:32;15.13;;;2.90;;
63316;SDS011;49822;41.468;13.560;2022-09-09T16:22:01;17.55;;;2.70;;
63316;SDS011;49822;41.468;13.560;2022-09-09T16:24:29;13.77;;;3.20;;
63316;SDS011;49822;41.468;13.560;2022-09-09T16:26:57;12.48;;;3.20;;
63316;SDS011;49822;41.468;13.560;2022-09-09T16:29:24;23.55;;;4.10;;
63316;SDS011;49822;41.468;13.560;2022-09-09T16:31:54;18.30;;;3.60;;
63316;SDS011;49822;41.468;13.560;2022-09-09T16:34:28;28.50;;;4.00;;
63316;SDS011;49822;41.468;13.560;2022-09-09T16:36:55;15.10;;;2.75;;
63316;SDS011;49822;41.468;13.560;2022-09-09T16:39:23;21.90;;;5.32;;
63316;SDS011;49822;41.468;13.560;2022-09-09T16:41:51;21.27;;;3.30;;
63316;SDS011;49822;41.468;13.560;2022-09-09T16:44:19;17.45;;;3.22;;
63316;SDS011;49822;41.468;13.560;2022-09-09T16:46:47;19.90;;;3.60;;
63316;SDS011;49822;41.468;13.560;2022-09-09T16:49:25;17.52;;;4.18;;
63316;SDS011;49822;41.468;13.560;2022-09-09T16:51:56;21.55;;;3.47;;
63316;SDS011;49822;41.468;13.560;2022-09-09T16:54:24;11.10;;;3.05;;
63316;SDS011;49822;41.468;13.560;2022-09-09T16:56:54;24.08;;;3.90;;
63316;SDS011;49822;41.468;13.560;2022-09-09T16:59:21;16.65;;;2.75;;
63316;SDS011;49822;41.468;13.560;2022-09-09T17:01:50;13.50;;;2.55;;
63316;SDS011;49822;41.468;13.560;2022-09-09T17:04:20;20.20;;;3.63;;
63316;SDS011;49822;41.468;13.560;2022-09-09T17:06:51;16.75;;;3.05;;
63316;SDS011;49822;41.468;13.560;2022-09-09T17:09:20;24.83;;;3.58;;
63316;SDS011;49822;41.468;13.560;2022-09-09T17:11:50;17.10;;;3.60;;
63316;SDS011;49822;41.468;13.560;2022-09-09T17:14:19;15.88;;;2.80;;
63316;SDS011;49822;41.468;13.560;2022-09-09T17:16:48;22.03;;;3.40;;
63316;SDS011;49822;41.468;13.560;2022-09-09T17:19:16;14.10;;;3.70;;
63316;SDS011;49822;41.468;13.560;2022-09-09T17:21:44;15.27;;;3.45;;
63316;SDS011;49822;41.468;13.560;2022-09-09T17:24:33;20.57;;;4.83;;
63316;SDS011;49822;41.468;13.560;2022-09-09T17:27:02;19.98;;;3.92;;
63316;SDS011;49822;41.468;13.560;2022-09-09T17:29:30;23.05;;;3.53;;
63316;SDS011;49822;41.468;13.560;2022-09-09T17:31:57;14.40;;;2.92;;